Faro, Canada
Current Conditions -  °F | °C
As of 10:00 AM on Monday 24 Nov 2014 (Local Time) from CZFA Reporting Station
Overcast Overcast  
Wind Chill:   Ceiling: 5000
Heat Index:   Visibility: 30mi
Dew Point:   Wind: 2mph
Humidity: 85%   Direction: NA
Pressure: 29.76"   Gusts: NA
Location:  62.19°N, 133.37°W
Report Text: CZFA 241800Z VRB02KT 30SM OVC050 M16/M18 A2976 RMK SC8 SLP146
Loading
Personal Weather Stations






























Interactive Weather Map New forecast layout! Learn more

10-Day Weather Forecast

Advertisements
Track Severe Weather on mobile